Аэропорт: Пулково. Санкт-Петербург

ICAO: ULLI

METAR:
2021-10-23 00:30:00
ULLI 230030Z 23005G10MPS 180V260 9999 OVC026 06/01 Q0987 R28L/090060 NOSIG
METAR:
2021-10-22 22:51:00
TAF ULLI 222251Z 2300/2324 24005G11MPS 9999 BKN016 BECMG 2311/2313 36005G10MPS